Time;durP1;ratioP1;P1;durP2;ratioP2;P2;SDS_P1;SDS_P2;PMS_P1;PMS_P2;Temp;Humidity;BMP_temperature;BMP_pressure;BME280_temperature;BME280_humidity;BME280_pressure;Samples;Min_cycle;Max_cycle;Signal;HPM_P1;HPM_P2
2023/02/21 02:15:14;;;;;;;23.00;14.93;;;;;;;7.86;100.00;100388.78;4955586;28;20646;-71
2023/02/21 02:18:09;;;;;;;32.97;22.70;;;;;;;7.88;100.00;100390.09;4955547;28;20229;-72
2023/02/21 02:20:44;;;;;;;26.10;17.37;;;;;;;7.89;100.00;100389.00;4955594;28;20206;-72
2023/02/21 02:23:34;;;;;;;32.87;18.87;;;;;;;7.88;100.00;100400.19;4955629;28;20182;-72
2023/02/21 02:26:18;;;;;;;23.47;15.07;;;;;;;7.88;100.00;100392.81;4955112;28;20175;-72
2023/02/21 02:29:14;;;;;;;21.57;16.33;;;;;;;7.88;100.00;100392.03;4955458;28;20179;-72
2023/02/21 02:31:57;;;;;;;22.23;14.47;;;;;;;7.86;100.00;100399.66;4950989;28;20190;-71
2023/02/21 02:34:35;;;;;;;18.23;13.20;;;;;;;7.87;100.00;100401.28;4954962;28;20210;-72
2023/02/21 02:37:20;;;;;;;9.90;8.93;;;;;;;7.88;100.00;100419.22;4955352;28;20253;-72
2023/02/21 02:40:12;;;;;;;20.57;13.63;;;;;;;7.88;100.00;100413.78;4955179;28;20706;-72
2023/02/21 02:42:48;;;;;;;15.53;13.60;;;;;;;7.86;100.00;100422.25;4955166;28;20201;-73
2023/02/21 02:45:30;;;;;;;13.03;9.37;;;;;;;7.84;100.00;100419.00;4954946;28;20182;-73
2023/02/21 02:48:09;;;;;;;16.80;13.50;;;;;;;7.84;100.00;100410.03;4955103;28;20411;-73
2023/02/21 02:50:35;;;;;;;15.23;12.47;;;;;;;7.84;100.00;100419.00;4955116;28;20666;-72
2023/02/21 02:53:02;;;;;;;14.80;12.20;;;;;;;7.85;100.00;100411.66;4954933;28;20185;-72
2023/02/21 02:55:34;;;;;;;17.73;12.10;;;;;;;7.85;100.00;100407.03;4954640;28;20519;-72
2023/02/21 02:58:01;;;;;;;4.10;3.70;;;;;;;7.87;100.00;100404.81;4954908;28;20174;-71
2023/02/21 03:00:27;;;;;;;13.50;12.10;;;;;;;7.88;100.00;100406.44;4954819;28;20210;-73
2023/02/21 03:02:58;;;;;;;17.53;11.90;;;;;;;7.89;100.00;100408.03;4954791;29;20201;-71
2023/02/21 03:05:52;;;;;;;14.27;10.60;;;;;;;7.89;100.00;100410.75;4954429;28;20182;-71
2023/02/21 03:08:37;;;;;;;15.13;11.47;;;;;;;7.89;100.00;100408.03;4954883;28;20232;-71
2023/02/21 03:11:13;;;;;;;9.67;8.83;;;;;;;7.91;100.00;100413.19;4954170;28;20214;-72
2023/02/21 03:13:44;;;;;;;11.07;8.23;;;;;;;7.88;100.00;100411.88;4954485;28;20186;-71
2023/02/21 03:16:19;;;;;;;23.37;12.37;;;;;;;7.89;100.00;100410.75;4954343;28;20560;-72
2023/02/21 03:18:49;;;;;;;17.37;13.00;;;;;;;7.89;100.00;100410.75;4954686;28;20174;-74
2023/02/21 03:21:19;;;;;;;20.60;16.20;;;;;;;7.89;100.00;100409.97;4954648;28;20174;-71
2023/02/21 03:23:50;;;;;;;16.67;14.50;;;;;;;7.91;100.00;100410.47;4954335;28;20213;-73
2023/02/21 03:26:16;;;;;;;12.07;10.77;;;;;;;7.91;100.00;100405.03;4954278;28;20178;-74
2023/02/21 03:28:43;;;;;;;12.57;11.23;;;;;;;7.88;100.00;100411.06;4954236;28;20643;-75
2023/02/21 03:31:12;;;;;;;21.90;15.60;;;;;;;7.87;100.00;100401.28;4954360;28;20526;-76
2023/02/21 03:33:37;;;;;;;24.13;15.10;;;;;;;7.84;100.00;100396.44;4954272;28;20182;-75
2023/02/21 03:36:05;;;;;;;21.90;17.47;;;;;;;7.80;100.00;100398.09;4954157;28;20190;-76
2023/02/21 03:38:31;;;;;;;16.23;10.93;;;;;;;7.78;100.00;100389.44;4954106;28;20512;-75
2023/02/21 03:40:56;;;;;;;14.17;11.03;;;;;;;7.76;100.00;100384.28;4954384;28;20206;-77
2023/02/21 03:43:21;;;;;;;13.20;11.53;;;;;;;7.75;100.00;100369.91;4954015;28;20181;-76
2023/02/21 03:45:47;;;;;;;13.13;9.67;;;;;;;7.75;100.00;100382.69;4953877;28;20175;-76
2023/02/21 03:48:12;;;;;;;22.90;14.50;;;;;;;7.76;100.00;100370.69;4952819;28;20182;-75
2023/02/21 03:50:37;;;;;;;19.93;15.70;;;;;;;7.75;100.00;100369.91;4954327;28;20187;-78
2023/02/21 03:53:03;;;;;;;11.83;10.07;;;;;;;7.76;100.00;100371.50;4953879;28;20193;-77
2023/02/21 03:55:29;;;;;;;18.87;15.80;;;;;;;7.78;100.00;100373.13;4953572;28;20226;-76
2023/02/21 03:57:54;;;;;;;29.07;17.67;;;;;;;7.78;100.00;100376.66;4953776;28;20265;-75
2023/02/21 04:00:19;;;;;;;19.87;15.57;;;;;;;7.79;100.00;100361.13;4953989;28;20242;-76
2023/02/21 04:02:45;;;;;;;29.00;15.00;;;;;;;7.80;100.00;100360.03;4953755;28;20265;-74
2023/02/21 04:05:10;;;;;;;18.23;14.13;;;;;;;7.81;100.00;100350.78;4953409;28;20547;-73
2023/02/21 04:07:36;;;;;;;21.37;15.27;;;;;;;7.82;100.00;100353.22;4953612;28;20181;-75
2023/02/21 04:10:01;;;;;;;18.60;14.33;;;;;;;7.83;100.00;100364.91;4953621;28;20791;-75
2023/02/21 04:12:27;;;;;;;19.73;15.77;;;;;;;7.84;100.00;100391.81;4953499;28;20769;-75
2023/02/21 04:14:55;;;;;;;29.97;19.00;;;;;;;7.89;100.00;100366.44;4953226;28;20669;-75
2023/02/21 04:17:20;;;;;;;20.23;16.97;;;;;;;7.90;100.00;100371.56;4953477;28;20686;-76
2023/02/21 04:19:46;;;;;;;26.67;17.87;;;;;;;7.92;100.00;100368.56;4953725;28;20195;-75
2023/02/21 04:22:11;;;;;;;23.83;15.03;;;;;;;7.94;100.00;100366.34;4953357;28;20174;-76
2023/02/21 04:24:36;;;;;;;31.87;20.93;;;;;;;7.95;100.00;100374.22;4952895;28;20190;-74
2023/02/21 04:27:01;;;;;;;31.50;20.70;;;;;;;7.95;100.00;100359.81;4953195;28;20580;-75
2023/02/21 04:29:27;;;;;;;28.03;19.37;;;;;;;7.94;100.00;100364.44;4953267;28;20258;-76
2023/02/21 04:31:53;;;;;;;40.57;21.27;;;;;;;7.95;100.00;100363.34;4953217;28;20693;-75
2023/02/21 04:34:18;;;;;;;33.37;20.13;;;;;;;7.97;100.00;100368.50;4952714;28;20177;-75
2023/02/21 04:36:43;;;;;;;42.50;23.63;;;;;;;7.97;100.00;100363.88;4953122;28;20602;-76
2023/02/21 04:39:09;;;;;;;27.87;18.67;;;;;;;7.97;100.00;100355.72;4952950;28;20202;-76
2023/02/21 04:41:34;;;;;;;34.50;20.03;;;;;;;7.98;100.00;100361.97;4952875;28;20229;-76
2023/02/21 04:44:00;;;;;;;35.07;20.47;;;;;;;7.98;100.00;100361.97;4952899;28;20171;-75
2023/02/21 04:46:25;;;;;;;29.33;19.97;;;;;;;7.99;100.00;100358.94;4952945;28;20683;-73
2023/02/21 04:48:52;;;;;;;37.60;23.70;;;;;;;7.99;100.00;100355.41;4952876;28;20181;-76
2023/02/21 04:51:20;;;;;;;38.60;21.77;;;;;;;7.99;100.00;100363.56;4952772;28;20201;-75
2023/02/21 04:53:47;;;;;;;47.70;22.70;;;;;;;7.98;100.00;100360.03;4952761;28;20175;-75
2023/02/21 04:56:13;;;;;;;37.87;22.60;;;;;;;7.98;100.00;100359.22;4952526;28;20543;-76
2023/02/21 04:58:38;;;;;;;32.13;21.77;;;;;;;7.97;100.00;100349.47;4952829;28;20194;-76
2023/02/21 05:01:04;;;;;;;36.60;18.03;;;;;;;7.98;100.00;100370.13;4952733;28;20798;-76
2023/02/21 05:03:29;;;;;;;29.70;18.77;;;;;;;8.00;100.00;100346.94;4952682;28;20175;-71
2023/02/21 05:05:55;;;;;;;40.53;24.43;;;;;;;8.01;100.00;100336.88;4952960;28;20185;-73
2023/02/21 05:08:20;;;;;;;30.40;20.67;;;;;;;8.01;100.00;100347.75;4952667;28;20178;-71
2023/02/21 05:10:45;;;;;;;35.77;21.47;;;;;;;8.02;100.00;100344.72;4952550;28;20253;-71
2023/02/21 05:13:12;;;;;;;31.50;18.03;;;;;;;8.02;100.00;100344.72;4952669;28;20194;-72
2023/02/21 05:15:37;;;;;;;30.07;16.90;;;;;;;8.02;100.00;100341.22;4952314;28;20266;-71
2023/02/21 05:18:02;;;;;;;38.57;22.50;;;;;;;8.03;100.00;100359.16;4952620;28;20629;-71
2023/02/21 05:20:28;;;;;;;24.03;16.33;;;;;;;8.01;100.00;100359.44;4952329;28;20206;-71
2023/02/21 05:22:53;;;;;;;40.30;24.27;;;;;;;8.01;100.00;100364.06;4952812;28;20181;-71
2023/02/21 05:25:21;;;;;;;27.13;20.53;;;;;;;7.99;100.00;100375.25;4952112;28;20233;-71
2023/02/21 05:27:47;;;;;;;24.90;17.43;;;;;;;7.99;100.00;100358.13;4952314;28;20285;-71
2023/02/21 05:30:15;;;;;;;28.93;19.90;;;;;;;7.94;100.00;100363.63;4952780;28;20185;-71
2023/02/21 05:32:40;;;;;;;28.47;16.53;;;;;;;7.91;100.00;100373.19;4952472;28;20218;-71
2023/02/21 05:35:06;;;;;;;31.03;21.43;;;;;;;7.89;100.00;100369.97;4951289;28;20194;-73
2023/02/21 05:37:32;;;;;;;26.30;18.50;;;;;;;7.89;100.00;100374.59;4952288;28;20228;-72
2023/02/21 05:39:58;;;;;;;37.23;22.03;;;;;;;7.89;100.00;100363.72;4952067;28;20206;-72
2023/02/21 05:42:23;;;;;;;17.40;12.83;;;;;;;7.87;100.00;100360.50;4952290;28;20662;-71
2023/02/21 05:44:49;;;;;;;15.63;12.27;;;;;;;7.84;100.00;100374.69;4952378;28;20178;-72
2023/02/21 05:47:14;;;;;;;24.10;13.50;;;;;;;7.82;100.00;100371.44;4952196;28;20175;-71
2023/02/21 05:49:40;;;;;;;30.40;17.47;;;;;;;7.81;100.00;100372.53;4952190;28;20513;-71
2023/02/21 05:52:07;;;;;;;34.70;17.10;;;;;;;7.82;100.00;100358.66;4952209;28;20178;-71
2023/02/21 05:54:32;;;;;;;32.17;15.00;;;;;;;7.81;100.00;100377.97;4951924;28;20559;-72
2023/02/21 05:56:58;;;;;;;22.50;15.90;;;;;;;7.81;100.00;100361.66;4952185;28;20253;-71
2023/02/21 05:59:23;;;;;;;17.37;12.80;;;;;;;7.84;100.00;100366.53;4952322;28;20198;-71
2023/02/21 06:01:49;;;;;;;20.77;13.97;;;;;;;7.85;100.00;100385.25;4952071;28;20179;-73
2023/02/21 06:04:16;;;;;;;19.37;15.77;;;;;;;7.86;100.00;100388.78;4951885;28;20175;-73
2023/02/21 06:06:41;;;;;;;20.13;15.03;;;;;;;7.85;100.00;100370.84;4951972;28;20194;-73
2023/02/21 06:09:07;;;;;;;15.30;10.87;;;;;;;7.85;100.00;100379.00;4951018;28;20175;-71
2023/02/21 06:11:36;;;;;;;15.63;12.80;;;;;;;7.85;100.00;100363.50;4952084;28;20262;-71
2023/02/21 06:14:04;;;;;;;26.13;13.37;;;;;;;7.86;100.00;100367.03;4951819;28;20179;-73
2023/02/21 06:16:34;;;;;;;17.60;12.00;;;;;;;7.87;100.00;100376.81;4952091;28;20179;-72
2023/02/21 06:19:00;;;;;;;19.63;14.00;;;;;;;7.86;100.00;100391.50;4951726;28;20174;-72
2023/02/21 06:21:25;;;;;;;15.37;10.03;;;;;;;7.85;100.00;100379.00;4951804;28;20233;-72
2023/02/21 06:23:51;;;;;;;11.97;9.60;;;;;;;7.86;100.00;100380.63;4951789;28;20208;-71
2023/02/21 06:26:17;;;;;;;24.77;13.27;;;;;;;7.84;100.00;100394.53;4951699;28;20654;-71
2023/02/21 06:28:42;;;;;;;21.37;13.53;;;;;;;7.83;100.00;100378.50;4951745;28;20182;-71
2023/02/21 06:31:08;;;;;;;24.67;13.47;;;;;;;7.83;100.00;100383.94;4950646;29;20187;-71
2023/02/21 06:33:33;;;;;;;17.17;8.37;;;;;;;7.83;100.00;100392.09;4951709;28;20175;-71
2023/02/21 06:36:06;;;;;;;11.57;9.97;;;;;;;7.83;100.00;100378.50;4951395;28;20179;-72
2023/02/21 06:38:32;;;;;;;22.73;13.03;;;;;;;7.85;100.00;100384.47;4950533;28;20725;-71
2023/02/21 06:40:58;;;;;;;15.10;10.10;;;;;;;7.84;100.00;100382.84;4951651;28;20210;-71
2023/02/21 06:43:23;;;;;;;17.90;11.27;;;;;;;7.83;100.00;100387.47;4951714;28;20182;-71
2023/02/21 06:45:48;;;;;;;21.00;13.03;;;;;;;7.83;100.00;100392.09;4951551;28;20178;-71
2023/02/21 06:48:15;;;;;;;15.83;12.17;;;;;;;7.82;100.00;100383.13;4954390;28;20236;-71
2023/02/21 06:50:40;;;;;;;16.67;10.13;;;;;;;7.84;100.00;100388.28;4954986;28;20190;-71
2023/02/21 06:53:06;;;;;;;20.67;15.53;;;;;;;7.83;100.00;100386.66;4955213;28;20621;-71
2023/02/21 06:55:31;;;;;;;19.33;12.17;;;;;;;7.85;100.00;100403.50;4954732;28;20190;-72
2023/02/21 06:57:57;;;;;;;17.70;12.13;;;;;;;7.88;100.00;100403.72;4954944;28;20186;-71
2023/02/21 07:00:22;;;;;;;13.57;11.47;;;;;;;7.92;100.00;100409.38;4954995;28;20434;-73
2023/02/21 07:02:47;;;;;;;18.87;12.97;;;;;;;7.95;100.00;100404.13;4954893;28;20205;-71
2023/02/21 07:05:14;;;;;;;24.67;13.07;;;;;;;7.97;100.00;100403.88;4954443;28;20257;-72
2023/02/21 07:07:41;;;;;;;20.30;12.50;;;;;;;7.98;100.00;100411.72;4954685;28;20265;-71
2023/02/21 07:10:07;;;;;;;19.43;13.60;;;;;;;8.00;100.00;100414.16;4954729;28;20190;-77
2023/02/21 07:12:32;;;;;;;14.57;13.00;;;;;;;8.02;100.00;100414.66;4954402;28;20178;-76
2023/02/21 07:14:58;;;;;;;16.70;10.13;;;;;;;8.05;100.00;100417.59;4955234;28;20181;-75
2023/02/21 07:17:23;;;;;;;17.97;10.70;;;;;;;8.05;100.00;100419.50;4955396;28;20174;-77
2023/02/21 07:19:48;;;;;;;16.53;14.67;;;;;;;8.06;100.00;100427.38;4953136;28;20602;-77
2023/02/21 07:22:13;;;;;;;17.53;11.93;;;;;;;8.09;100.00;100427.88;4954465;28;20184;-76
2023/02/21 07:24:40;;;;;;;20.27;11.13;;;;;;;8.09;100.00;100449.66;4954053;28;20178;-77
2023/02/21 07:27:06;;;;;;;18.27;12.00;;;;;;;8.09;100.00;100433.31;4954160;28;20175;-77
2023/02/21 07:29:31;;;;;;;17.27;13.13;;;;;;;8.10;100.00;100446.66;4954276;28;20630;-76
2023/02/21 07:31:56;;;;;;;20.43;14.87;;;;;;;8.09;100.00;100445.00;4953848;28;20190;-76
2023/02/21 07:34:22;;;;;;;14.53;11.97;;;;;;;8.09;100.00;100450.47;4953110;28;20220;-76
2023/02/21 07:36:48;;;;;;;16.27;11.97;;;;;;;8.09;100.00;100444.22;4954228;28;20363;-77
2023/02/21 07:39:13;;;;;;;15.17;12.63;;;;;;;8.08;100.00;100440.69;4954073;28;20183;-76
2023/02/21 07:41:38;;;;;;;14.27;8.67;;;;;;;8.08;100.00;100435.25;4954117;28;20186;-76
2023/02/21 07:44:04;;;;;;;12.27;9.77;;;;;;;8.09;100.00;100455.09;4954015;28;20178;-75
2023/02/21 07:46:29;;;;;;;20.63;12.40;;;;;;;8.07;100.00;100458.09;4953914;28;20214;-74
2023/02/21 07:48:55;;;;;;;18.50;13.97;;;;;;;8.07;100.00;100452.66;4953892;28;20179;-77
2023/02/21 07:51:20;;;;;;;23.50;15.30;;;;;;;8.05;100.00;100455.69;4953924;28;20210;-77
2023/02/21 07:53:46;;;;;;;23.17;14.27;;;;;;;8.04;100.00;100456.78;4954311;28;20189;-75
2023/02/21 07:56:11;;;;;;;19.53;13.07;;;;;;;8.03;100.00;100463.34;4953632;28;20225;-76
2023/02/21 07:58:37;;;;;;;26.93;15.50;;;;;;;8.03;100.00;100459.81;4953428;28;20182;-77
2023/02/21 08:01:03;;;;;;;20.00;13.50;;;;;;;8.02;100.00;100467.16;4953979;28;20585;-76
2023/02/21 08:03:29;;;;;;;18.23;14.60;;;;;;;8.03;100.00;100468.78;4953746;28;20174;-76
2023/02/21 08:05:54;;;;;;;24.53;11.33;;;;;;;8.04;100.00;100480.47;4952343;28;20185;-76
2023/02/21 08:08:21;;;;;;;20.47;12.97;;;;;;;8.03;100.00;100471.50;4953636;29;20205;-76
2023/02/21 08:10:47;;;;;;;19.87;13.83;;;;;;;8.02;100.00;100477.25;4953545;28;20594;-76
2023/02/21 08:13:13;;;;;;;21.37;11.00;;;;;;;8.01;100.00;100475.63;4953302;28;20674;-75
2023/02/21 08:15:38;;;;;;;20.60;15.73;;;;;;;8.02;100.00;100478.03;4953263;28;20179;-76
2023/02/21 08:18:03;;;;;;;11.90;10.70;;;;;;;8.04;100.00;100475.84;4953791;28;20206;-76
2023/02/21 08:20:29;;;;;;;22.80;13.60;;;;;;;8.05;100.00;100471.19;4953271;28;20213;-75
2023/02/21 08:22:54;;;;;;;27.10;16.60;;;;;;;8.06;100.00;100479.06;4953252;28;20255;-76
2023/02/21 08:25:19;;;;;;;19.77;15.10;;;;;;;8.08;100.00;100478.78;4953121;28;20171;-76
2023/02/21 08:27:45;;;;;;;17.97;14.07;;;;;;;8.09;100.00;100474.94;4953401;28;20258;-76
2023/02/21 08:30:13;;;;;;;24.00;14.20;;;;;;;8.09;100.00;100480.38;4953262;28;20222;-76
2023/02/21 08:32:39;;;;;;;21.53;16.90;;;;;;;8.11;100.00;100489.09;4953219;28;20651;-77
2023/02/21 08:35:05;;;;;;;15.30;11.00;;;;;;;8.12;100.00;100492.63;4952718;28;20271;-76
2023/02/21 08:37:35;;;;;;;22.37;15.73;;;;;;;8.15;100.00;100497.47;4953097;28;20171;-76
2023/02/21 08:40:02;;;;;;;21.80;13.87;;;;;;;8.16;100.00;100504.53;4953037;28;20289;-75
2023/02/21 08:42:27;;;;;;;22.43;13.80;;;;;;;8.18;100.00;100492.25;4953024;28;20181;-76
2023/02/21 08:44:53;;;;;;;21.20;13.50;;;;;;;8.22;100.00;100506.88;4953013;28;20170;-76
2023/02/21 08:47:18;;;;;;;20.57;13.87;;;;;;;8.23;100.00;100511.22;4951614;28;20171;-76
2023/02/21 08:49:46;;;;;;;15.03;11.37;;;;;;;8.25;100.00;100521.84;4953315;28;20179;-75
2023/02/21 08:52:11;;;;;;;15.60;12.93;;;;;;;8.27;100.00;100517.72;4953011;28;20167;-76
2023/02/21 08:54:36;;;;;;;16.00;11.40;;;;;;;8.28;100.00;100519.31;4952541;28;20689;-76
2023/02/21 08:57:02;;;;;;;22.43;15.43;;;;;;;8.30;100.00;100516.31;4952767;28;20583;-76
2023/02/21 08:59:29;;;;;;;15.37;13.13;;;;;;;8.34;100.00;100511.91;4952830;28;20195;-77
2023/02/21 09:01:55;;;;;;;17.53;10.13;;;;;;;8.33;100.00;100516.50;4952824;28;20170;-76
2023/02/21 09:04:20;;;;;;;16.50;10.43;;;;;;;8.37;100.00;100518.69;4952326;28;20510;-76
2023/02/21 09:06:45;;;;;;;18.50;12.00;;;;;;;8.40;100.00;100515.38;4952676;28;20182;-77
2023/02/21 09:09:10;;;;;;;9.20;8.47;;;;;;;8.46;100.00;100520.44;4951951;28;20175;-76
2023/02/21 09:11:36;;;;;;;17.13;12.53;;;;;;;8.49;100.00;100525.28;4952584;28;20179;-76
2023/02/21 09:14:04;;;;;;;12.07;10.83;;;;;;;8.51;100.00;100514.09;4952507;28;20202;-76
2023/02/21 09:16:30;;;;;;;13.80;11.00;;;;;;;8.53;100.00;100523.59;4952384;28;20170;-75
2023/02/21 09:18:57;;;;;;;13.53;9.93;;;;;;;8.55;100.00;100518.69;4952519;28;20530;-77
2023/02/21 09:21:24;;;;;;;21.40;14.60;;;;;;;8.56;100.00;100516.78;4952398;28;20209;-77
2023/02/21 09:23:54;;;;;;;11.47;9.30;;;;;;;8.57;100.00;100511.03;4952556;28;20181;-76
2023/02/21 09:26:22;;;;;;;16.37;13.40;;;;;;;8.60;100.00;100509.63;4952168;28;20262;-76
2023/02/21 09:28:48;;;;;;;18.43;13.80;;;;;;;8.59;100.00;100502.56;4952361;28;20271;-75
2023/02/21 09:31:13;;;;;;;17.37;13.60;;;;;;;8.58;100.00;100500.94;4952361;28;20182;-76
2023/02/21 09:33:40;;;;;;;13.20;11.53;;;;;;;8.60;100.00;100502.25;4952183;28;20167;-75
2023/02/21 09:36:06;;;;;;;11.70;9.47;;;;;;;8.61;100.00;100500.34;4951970;28;20481;-75
2023/02/21 09:38:32;;;;;;;16.70;13.13;;;;;;;8.64;100.00;100510.63;4952482;28;20201;-77
2023/02/21 09:41:00;;;;;;;14.27;10.97;;;;;;;8.61;100.00;100505.78;4952208;28;20682;-75
2023/02/21 09:43:35;;;;;;;35.57;17.00;;;;;;;8.57;100.00;100511.03;4952191;28;20185;-76
2023/02/21 09:46:14;;;;;;;20.13;14.23;;;;;;;8.55;100.00;100504.25;4950613;28;20527;-75
2023/02/21 09:48:42;;;;;;;25.67;14.83;;;;;;;8.59;100.00;100514.25;4952237;28;20178;-76
2023/02/21 09:51:09;;;;;;;31.13;16.20;;;;;;;8.60;100.00;100515.06;4952390;28;20865;-75
2023/02/21 09:53:40;;;;;;;12.93;11.60;;;;;;;8.62;100.00;100513.66;4952231;28;20253;-76
2023/02/21 09:56:16;;;;;;;17.57;13.13;;;;;;;8.58;100.00;100509.09;4952046;28;20705;-75
2023/02/21 09:58:43;;;;;;;21.00;11.27;;;;;;;8.61;100.00;100519.41;4952080;28;20182;-76
2023/02/21 10:01:45;;;;;;;16.90;12.73;;;;;;;8.67;100.00;100517.41;4952043;28;20598;-74
2023/02/21 10:04:26;;;;;;;24.70;16.33;;;;;;;8.66;100.00;100522.03;4952034;28;20377;-76
2023/02/21 10:07:03;;;;;;;19.30;14.13;;;;;;;8.68;100.00;100519.00;4952061;28;20310;-76
2023/02/21 10:09:35;;;;;;;39.07;17.00;;;;;;;8.75;100.00;100530.34;4952394;28;20178;-74
2023/02/21 10:12:16;;;;;;;17.83;13.23;;;;;;;8.78;100.00;100527.84;4952069;28;20582;-76
2023/02/21 10:15:33;;;;;;;18.77;13.77;;;;;;;8.80;100.00;100530.25;4951642;28;20277;-77
2023/02/21 10:18:15;;;;;;;34.53;18.17;;;;;;;8.82;100.00;100511.69;4929652;28;20190;-75
2023/02/21 10:20:50;;;;;;;18.37;13.33;;;;;;;8.90;100.00;100524.66;4952741;28;20210;-76
2023/02/21 10:23:28;;;;;;;22.63;15.37;;;;;;;8.89;100.00;100529.28;4955509;28;20634;-76
2023/02/21 10:25:58;;;;;;;20.40;13.50;;;;;;;8.90;100.00;100530.09;4955592;28;20175;-76
2023/02/21 10:28:25;;;;;;;15.43;10.67;;;;;;;8.94;100.00;100542.00;4955578;28;20186;-76
2023/02/21 10:30:57;;;;;;;12.27;9.63;;;;;;;9.02;100.00;100538.63;4955445;28;20196;-77
2023/02/21 10:33:23;;;;;;;17.70;11.33;;;;;;;9.07;100.00;100540.44;4955380;28;20175;-77
2023/02/21 10:35:48;;;;;;;18.17;9.90;;;;;;;9.08;100.00;100531.16;4955162;28;20186;-76
2023/02/21 10:38:22;;;;;;;14.20;11.97;;;;;;;9.10;100.00;100537.13;4955238;28;20179;-73
2023/02/21 10:41:01;;;;;;;13.20;8.77;;;;;;;9.11;100.00;100544.19;4955146;28;20220;-73
2023/02/21 10:44:00;;;;;;;20.97;12.93;;;;;;;9.14;100.00;100547.13;4955153;28;20258;-75
2023/02/21 10:46:36;;;;;;;12.93;10.93;;;;;;;9.17;100.00;100553.91;4943338;29;20186;-76
2023/02/21 10:49:14;;;;;;;19.57;11.20;;;;;;;9.23;100.00;100548.06;4955173;28;20599;-77
2023/02/21 10:51:39;;;;;;;16.63;11.63;;;;;;;9.32;100.00;100550.91;4955084;28;20663;-76
2023/02/21 10:54:22;;;;;;;10.37;8.80;;;;;;;9.41;100.00;100549.13;4954940;28;20181;-75
2023/02/21 10:56:51;;;;;;;10.47;8.90;;;;;;;9.42;100.00;100553.47;4955067;28;20182;-75
2023/02/21 10:59:23;;;;;;;15.30;9.27;;;;;;;9.41;100.00;100565.47;4954703;28;20182;-75
2023/02/21 11:01:50;;;;;;;8.10;7.13;;;;;;;9.42;100.00;100550.72;4954959;28;20183;-76
2023/02/21 11:04:18;;;;;;;10.20;7.47;;;;;;;9.44;100.00;100555.88;4954761;28;20174;-76
2023/02/21 11:06:46;;;;;;;14.47;8.67;;;;;;;9.49;100.00;100563.97;4955006;28;20183;-76
2023/02/21 11:09:38;;;;;;;8.37;7.50;;;;;;;9.45;100.00;100560.22;4954742;28;20693;-76
2023/02/21 11:12:09;;;;;;;15.30;10.53;;;;;;;9.53;100.00;100571.22;4953601;28;20342;-76
2023/02/21 11:14:34;;;;;;;8.50;7.70;;;;;;;9.54;100.00;100572.03;4954359;28;20253;-76
2023/02/21 11:17:06;;;;;;;11.23;10.03;;;;;;;9.62;100.00;100563.16;4954738;28;20232;-76
2023/02/21 11:19:49;;;;;;;10.70;9.43;;;;;;;9.66;100.00;100563.38;4954482;28;20206;-76
2023/02/21 11:22:18;;;;;;;14.37;11.73;;;;;;;9.63;100.00;100569.44;4954617;28;20179;-76
2023/02/21 11:24:59;;;;;;;15.47;9.20;;;;;;;9.64;100.00;100568.31;4954195;28;20178;-75
2023/02/21 11:27:26;;;;;;;15.00;10.07;;;;;;;9.66;100.00;100566.91;4954499;28;20179;-75
2023/02/21 11:29:53;;;;;;;14.67;8.07;;;;;;;9.71;100.00;100568.75;4953215;29;20174;-76
2023/02/21 11:32:24;;;;;;;13.43;9.20;;;;;;;9.71;100.00;100563.28;4953464;28;20205;-77
2023/02/21 11:34:50;;;;;;;13.63;9.80;;;;;;;9.65;100.00;100562.56;4953958;28;20193;-75
2023/02/21 11:37:16;;;;;;;7.67;6.50;;;;;;;9.73;100.00;100561.88;4954333;28;20175;-77
2023/02/21 11:39:50;;;;;;;9.17;7.70;;;;;;;9.81;100.00;100576.72;4954169;28;20198;-75
2023/02/21 11:42:32;;;;;;;12.73;7.43;;;;;;;9.87;100.00;100561.88;4954148;28;20264;-75
2023/02/21 11:45:20;;;;;;;8.77;6.03;;;;;;;9.90;100.00;100572.16;4953869;28;20181;-76
2023/02/21 11:47:55;;;;;;;9.33;7.23;;;;;;;9.94;100.00;100564.19;4954074;28;20205;-76
2023/02/21 11:50:25;;;;;;;10.57;9.53;;;;;;;9.86;100.00;100562.97;4954289;28;20181;-76
2023/02/21 11:53:06;;;;;;;7.03;6.27;;;;;;;9.83;100.00;100579.94;4953899;28;20179;-75
2023/02/21 11:55:33;;;;;;;11.07;8.27;;;;;;;9.86;100.00;100562.97;4953903;28;20178;-76
2023/02/21 11:58:18;;;;;;;3.63;3.30;;;;;;;9.87;100.00;100564.59;4953831;28;20179;-75
2023/02/21 12:01:00;;;;;;;5.73;5.23;;;;;;;9.83;100.00;100567.09;4953810;28;20238;-76
2023/02/21 12:03:31;;;;;;;5.73;4.73;;;;;;;9.90;100.00;100574.09;4954091;28;20186;-76
2023/02/21 12:06:21;;;;;;;3.93;3.63;;;;;;;9.98;100.00;100573.38;4953602;28;20175;-76
2023/02/21 12:08:57;;;;;;;7.30;6.50;;;;;;;9.92;100.00;100563.69;4942485;28;20201;-74
2023/02/21 12:11:44;;;;;;;6.60;5.90;;;;;;;9.91;100.00;100560.13;4953621;28;20178;-75
2023/02/21 12:14:30;;;;;;;5.50;4.97;;;;;;;9.88;100.00;100566.22;4953500;28;20174;-76
2023/02/21 12:16:58;;;;;;;6.77;6.17;;;;;;;9.98;100.00;100557.81;4953541;28;20183;-76
2023/02/21 12:19:45;;;;;;;4.60;4.20;;;;;;;10.03;100.00;100560.44;4953544;28;20261;-75
2023/02/21 12:22:32;;;;;;;5.50;5.00;;;;;;;10.07;100.00;100555.19;4953433;28;20244;-76
2023/02/21 12:25:28;;;;;;;5.53;5.03;;;;;;;10.01;100.00;100559.13;4953233;28;20170;-75
2023/02/21 12:28:12;;;;;;;6.60;5.67;;;;;;;9.96;100.00;100548.31;4953361;28;20241;-72
2023/02/21 12:30:40;;;;;;;5.33;4.27;;;;;;;9.96;100.00;100551.84;4953249;28;20639;-74
2023/02/21 12:33:14;;;;;;;2.87;2.60;;;;;;;10.25;100.00;100558.91;4953142;28;20225;-75
2023/02/21 12:36:11;;;;;;;8.53;3.53;;;;;;;10.50;100.00;100555.63;4952898;28;20197;-75
2023/02/21 12:38:39;;;;;;;6.77;4.60;;;;;;;10.38;100.00;100558.09;4953103;28;20170;-76
2023/02/21 12:41:31;;;;;;;6.53;6.00;;;;;;;10.29;100.00;100558.00;4952919;28;20234;-71
2023/02/21 12:44:23;;;;;;;4.53;4.13;;;;;;;10.11;100.00;100548.78;4952951;28;20175;-72
2023/02/21 12:46:59;;;;;;;4.13;3.73;;;;;;;10.05;100.00;100541.03;4952906;28;20698;-71
2023/02/21 12:49:50;;;;;;;4.43;3.73;;;;;;;10.01;100.00;100543.56;4952873;28;20293;-71
2023/02/21 12:52:34;;;;;;;4.77;4.37;;;;;;;9.97;100.00;100539.81;4952917;28;20183;-70
2023/02/21 12:55:24;;;;;;;4.10;3.70;;;;;;;9.95;100.00;100542.03;4953044;28;20258;-72
2023/02/21 12:57:58;;;;;;;7.07;4.63;;;;;;;9.97;100.00;100544.47;4953310;28;20261;-71
2023/02/21 13:00:51;;;;;;;2.80;2.37;;;;;;;10.00;100.00;100533.75;4952715;28;20218;-71
2023/02/21 13:03:48;;;;;;;5.33;4.83;;;;;;;10.03;100.00;100533.16;4949733;29;20620;-71
2023/02/21 13:06:47;;;;;;;4.23;3.60;;;;;;;10.02;100.00;100531.53;4952481;28;20183;-71
2023/02/21 13:09:35;;;;;;;4.67;3.97;;;;;;;9.98;100.00;100533.25;4952815;28;20186;-71
2023/02/21 13:12:16;;;;;;;2.97;2.37;;;;;;;9.98;100.00;100524.25;4952696;28;20175;-71
2023/02/21 13:14:49;;;;;;;5.37;4.87;;;;;;;9.93;100.00;100527.91;4952307;29;20180;-72
2023/02/21 13:17:16;;;;;;;4.93;3.67;;;;;;;9.96;100.00;100521.00;4952637;29;20302;-71
2023/02/21 13:20:03;;;;;;;7.23;6.13;;;;;;;10.14;100.00;100522.81;4952315;28;20625;-72
2023/02/21 13:26:20;;;;;;;6.33;5.73;;;;;;;10.46;100.00;100519.13;4952332;29;20616;-72
2023/02/21 13:28:51;;;;;;;4.53;4.20;;;;;;;10.44;100.00;100532.28;4952444;28;20190;-71
2023/02/21 13:31:22;;;;;;;3.50;3.23;;;;;;;10.40;100.00;100523.06;4952702;28;20277;-71
2023/02/21 13:33:51;;;;;;;2.87;2.27;;;;;;;10.38;100.00;100526.13;4952202;28;20215;-70
2023/02/21 13:36:28;;;;;;;5.77;5.27;;;;;;;10.37;100.00;100519.03;4952119;28;20194;-72
2023/02/21 13:39:03;;;;;;;8.60;7.80;;;;;;;10.43;100.00;100528.75;4952155;28;20257;-71
2023/02/21 13:41:33;;;;;;;7.90;6.70;;;;;;;10.46;100.00;100518.31;4952159;28;20296;-71
2023/02/21 13:43:59;;;;;;;8.77;6.70;;;;;;;10.56;100.00;100524.34;4952415;28;20217;-71
2023/02/21 13:46:45;;;;;;;7.53;6.83;;;;;;;10.61;100.00;100515.22;4952097;28;20185;-72